Time;durP1;ratioP1;P1;durP2;ratioP2;P2;SDS_P1;SDS_P2;PMS_P1;PMS_P2;Temp;Humidity;BMP_temperature;BMP_pressure;BME280_temperature;BME280_humidity;BME280_pressure;Samples;Min_cycle;Max_cycle;Signal;HPM_P1;HPM_P2
2022/07/04 00:01:06;;;;;;;6.97;6.00;;;24.40;92.50;;;;;;6303122;28;20227;-63
2022/07/04 00:04:10;;;;;;;6.43;5.93;;;24.40;92.50;;;;;;6302829;28;20218;-63
2022/07/04 00:07:13;;;;;;;6.23;5.73;;;24.30;92.60;;;;;;6302970;28;20207;-63
2022/07/04 00:10:20;;;;;;;6.20;5.63;;;24.20;92.80;;;;;;6302937;28;20215;-62
2022/07/04 00:13:23;;;;;;;5.97;5.37;;;24.20;92.90;;;;;;6302549;28;20510;-62
2022/07/04 00:16:27;;;;;;;6.17;5.67;;;24.20;93.00;;;;;;6302899;28;20205;-62
2022/07/04 00:19:30;;;;;;;6.10;5.60;;;24.10;93.10;;;;;;6301792;28;20235;-64
2022/07/04 00:22:33;;;;;;;6.87;6.17;;;24.20;93.20;;;;;;6298045;28;20231;-63
2022/07/04 00:25:38;;;;;;;6.17;5.77;;;24.20;93.30;;;;;;6302034;28;20565;-64
2022/07/04 00:28:41;;;;;;;6.20;5.70;;;24.10;93.30;;;;;;6302232;28;20227;-63
2022/07/04 00:31:44;;;;;;;6.00;5.00;;;24.10;93.30;;;;;;6302130;28;20513;-63
2022/07/04 00:34:48;;;;;;;8.00;5.70;;;24.10;93.40;;;;;;6301963;28;20226;-63
2022/07/04 00:37:51;;;;;;;6.00;5.50;;;23.90;93.50;;;;;;6301954;28;20230;-64
2022/07/04 00:40:56;;;;;;;7.23;6.30;;;23.80;93.80;;;;;;6302036;28;20227;-63
2022/07/04 00:44:03;;;;;;;6.30;5.70;;;23.90;93.90;;;;;;6301710;28;20680;-63
2022/07/04 00:47:15;;;;;;;6.20;5.70;;;23.90;94.00;;;;;;6301077;28;20231;-63
2022/07/04 00:50:19;;;;;;;5.70;5.20;;;23.80;94.20;;;;;;6301700;28;20231;-64
2022/07/04 00:53:23;;;;;;;7.03;6.47;;;23.80;94.30;;;;;;6301823;28;20572;-64
2022/07/04 00:56:28;;;;;;;6.50;5.70;;;23.80;94.30;;;;;;6301934;28;20257;-63
2022/07/04 00:59:31;;;;;;;6.40;5.90;;;23.80;94.40;;;;;;6301524;28;20325;-66
2022/07/04 01:02:35;;;;;;;7.27;5.93;;;23.80;94.30;;;;;;6301728;28;20231;-66
2022/07/04 01:05:41;;;;;;;6.93;6.33;;;23.80;94.50;;;;;;6301208;28;20233;-66
2022/07/04 01:08:45;;;;;;;5.63;5.10;;;23.70;94.50;;;;;;6301345;28;20223;-66
2022/07/04 01:11:51;;;;;;;5.10;4.70;;;23.70;94.60;;;;;;6301135;28;20230;-63
2022/07/04 01:14:54;;;;;;;5.93;5.53;;;23.70;94.60;;;;;;6301234;28;20231;-63
2022/07/04 01:17:57;;;;;;;6.27;5.67;;;23.60;94.70;;;;;;6300830;28;20230;-63
2022/07/04 01:21:02;;;;;;;5.73;5.33;;;23.50;94.90;;;;;;6300988;28;20231;-63
2022/07/04 01:24:06;;;;;;;6.40;5.90;;;23.50;95.10;;;;;;6300640;28;20579;-67
2022/07/04 01:27:09;;;;;;;6.63;6.13;;;23.40;95.10;;;;;;6300852;28;20234;-67
2022/07/04 01:30:13;;;;;;;6.40;5.80;;;23.40;95.30;;;;;;6300740;28;20668;-67
2022/07/04 01:33:19;;;;;;;7.03;6.40;;;23.30;95.50;;;;;;6300723;28;20223;-66
2022/07/04 01:36:23;;;;;;;8.20;6.63;;;23.30;95.60;;;;;;6300729;28;20227;-66
2022/07/04 01:39:27;;;;;;;6.50;5.90;;;23.30;95.80;;;;;;6300207;28;20668;-66
2022/07/04 01:42:30;;;;;;;5.87;5.47;;;23.20;95.90;;;;;;6299705;28;20249;-66
2022/07/04 01:45:37;;;;;;;6.40;5.97;;;23.30;96.00;;;;;;6299898;28;20242;-66
2022/07/04 01:48:40;;;;;;;5.70;5.27;;;23.20;96.10;;;;;;6300034;28;20235;-66
2022/07/04 01:51:48;;;;;;;6.30;5.43;;;23.10;96.30;;;;;;6300023;28;20223;-66
2022/07/04 01:54:51;;;;;;;6.40;5.90;;;23.00;96.50;;;;;;6300227;28;20572;-66
2022/07/04 01:57:55;;;;;;;6.10;5.60;;;23.00;96.80;;;;;;6299572;28;20243;-66
2022/07/04 02:04:18;;;;;;;6.27;5.77;;;23.00;96.90;;;;;;6300117;28;20199;-65
2022/07/04 02:07:23;;;;;;;5.90;5.40;;;23.00;97.20;;;;;;6299934;28;20206;-64
2022/07/04 02:10:26;;;;;;;6.60;6.07;;;22.90;97.20;;;;;;6300107;28;20226;-64
2022/07/04 02:13:28;;;;;;;7.10;6.50;;;22.90;97.40;;;;;;6299846;28;20223;-64
2022/07/04 02:16:32;;;;;;;6.53;6.03;;;22.90;97.40;;;;;;6300085;28;20648;-64
2022/07/04 02:19:35;;;;;;;5.73;5.33;;;22.80;97.60;;;;;;6300215;28;20234;-63
2022/07/04 02:22:39;;;;;;;5.80;5.30;;;22.80;97.70;;;;;;6299938;28;20227;-63
2022/07/04 02:25:42;;;;;;;6.40;5.90;;;22.80;97.70;;;;;;6299988;28;20660;-63
2022/07/04 02:28:45;;;;;;;7.00;5.97;;;22.80;97.70;;;;;;6299758;28;20685;-66
2022/07/04 02:31:49;;;;;;;5.73;5.30;;;22.80;97.70;;;;;;6290740;28;20234;-66
2022/07/04 02:34:52;;;;;;;5.47;5.00;;;22.70;97.70;;;;;;6299948;28;20248;-65
2022/07/04 02:37:56;;;;;;;6.40;5.80;;;22.80;97.80;;;;;;6299656;28;20229;-64
2022/07/04 02:40:59;;;;;;;6.40;5.90;;;22.70;97.70;;;;;;6299595;28;20656;-64
2022/07/04 02:44:03;;;;;;;5.67;5.27;;;22.70;97.80;;;;;;6299859;28;20233;-64
2022/07/04 02:47:06;;;;;;;6.20;5.80;;;22.60;98.00;;;;;;6307023;28;20324;-64
2022/07/04 02:50:09;;;;;;;7.03;6.27;;;22.60;98.10;;;;;;6301199;28;20231;-64
2022/07/04 02:53:14;;;;;;;6.43;5.73;;;22.50;98.30;;;;;;6299954;28;20231;-64
2022/07/04 02:56:17;;;;;;;5.30;4.90;;;22.60;98.40;;;;;;6300011;28;20231;-64
2022/07/04 02:59:20;;;;;;;6.10;5.70;;;22.50;98.30;;;;;;6300073;28;20235;-65
2022/07/04 03:02:23;;;;;;;5.90;5.50;;;22.50;98.60;;;;;;6300294;28;20685;-64
2022/07/04 03:05:28;;;;;;;6.13;5.70;;;22.50;98.80;;;;;;6299985;28;20258;-64
2022/07/04 03:08:33;;;;;;;6.27;5.70;;;22.50;98.80;;;;;;6300884;28;20235;-66
2022/07/04 03:11:36;;;;;;;5.77;5.27;;;22.40;98.70;;;;;;6304630;28;20685;-66
2022/07/04 03:14:39;;;;;;;6.53;5.93;;;22.40;98.80;;;;;;6304590;28;20790;-67
2022/07/04 03:17:43;;;;;;;6.47;5.93;;;22.40;98.90;;;;;;6304156;28;20223;-66
2022/07/04 03:20:46;;;;;;;6.43;5.93;;;22.40;99.20;;;;;;6304066;28;20246;-65
2022/07/04 03:23:58;;;;;;;6.10;5.60;;;22.40;99.30;;;;;;6303659;28;20551;-65
2022/07/04 03:27:01;;;;;;;6.10;5.60;;;22.40;99.40;;;;;;6303866;28;20235;-66
2022/07/04 03:30:05;;;;;;;6.50;5.90;;;22.40;99.50;;;;;;6303388;28;20676;-66
2022/07/04 03:33:08;;;;;;;6.53;5.90;;;22.30;99.60;;;;;;6304339;28;20241;-66
2022/07/04 03:36:12;;;;;;;6.77;6.17;;;22.30;99.60;;;;;;6299050;28;20231;-66
2022/07/04 03:39:16;;;;;;;6.43;6.03;;;22.40;99.70;;;;;;6303126;28;20239;-65
2022/07/04 03:42:20;;;;;;;6.83;6.20;;;22.30;99.70;;;;;;6303503;28;20227;-66
2022/07/04 03:45:23;;;;;;;6.80;6.20;;;22.30;99.80;;;;;;6303355;28;20227;-65
2022/07/04 03:48:27;;;;;;;7.60;7.00;;;22.30;99.90;;;;;;6303114;28;20238;-65
2022/07/04 03:51:30;;;;;;;6.63;6.03;;;22.30;99.90;;;;;;6303089;28;20241;-65
2022/07/04 03:54:34;;;;;;;6.60;6.00;;;22.30;99.90;;;;;;6303028;28;20227;-67
2022/07/04 03:57:37;;;;;;;7.67;6.93;;;22.40;99.90;;;;;;6302843;28;20743;-66
2022/07/04 04:00:41;;;;;;;8.30;6.53;;;22.50;99.90;;;;;;6302772;28;20707;-66
2022/07/04 04:07:05;;;;;;;9.20;6.90;;;22.50;99.90;;;;;;6302996;28;20238;-66
2022/07/04 04:10:10;;;;;;;6.20;5.60;;;22.60;99.90;;;;;;6302555;28;20227;-66
2022/07/04 04:13:13;;;;;;;7.10;6.53;;;22.70;99.90;;;;;;6302675;28;20219;-66
2022/07/04 04:16:17;;;;;;;7.07;6.47;;;22.70;99.90;;;;;;6302849;28;20204;-66
2022/07/04 04:19:20;;;;;;;7.33;6.63;;;22.90;99.70;;;;;;6302661;28;20230;-66
2022/07/04 04:22:24;;;;;;;7.40;6.40;;;22.90;99.50;;;;;;6302648;28;20213;-67
2022/07/04 04:25:28;;;;;;;8.00;7.30;;;23.00;99.60;;;;;;6302598;28;20234;-66
2022/07/04 04:28:31;;;;;;;6.87;6.37;;;23.10;99.80;;;;;;6301992;28;20231;-66
2022/07/04 04:31:35;;;;;;;7.87;7.07;;;23.20;99.70;;;;;;6301951;28;20235;-63
2022/07/04 04:34:38;;;;;;;6.97;6.27;;;23.30;99.20;;;;;;6302210;28;20225;-63
2022/07/04 04:37:42;;;;;;;7.97;7.37;;;23.40;98.90;;;;;;6302019;28;20250;-64
2022/07/04 04:40:46;;;;;;;6.93;6.40;;;23.60;98.80;;;;;;6301777;28;20223;-64
2022/07/04 04:43:49;;;;;;;7.23;6.57;;;23.70;98.30;;;;;;6301629;28;20227;-64
2022/07/04 04:46:55;;;;;;;7.97;7.30;;;23.80;98.20;;;;;;6302073;28;20222;-64
2022/07/04 04:49:58;;;;;;;7.47;6.67;;;23.90;98.10;;;;;;6301705;28;20223;-64
2022/07/04 04:53:01;;;;;;;7.50;6.87;;;24.00;98.10;;;;;;6301660;28;20227;-64
2022/07/04 04:56:06;;;;;;;7.80;7.10;;;24.20;98.00;;;;;;6301600;28;20711;-64
2022/07/04 04:59:09;;;;;;;8.10;7.40;;;24.30;97.60;;;;;;6301081;28;20574;-64
2022/07/04 05:02:12;;;;;;;8.00;7.30;;;24.40;97.20;;;;;;6301156;28;20235;-62
2022/07/04 05:05:18;;;;;;;7.63;6.83;;;24.50;97.00;;;;;;6300810;28;20222;-66
2022/07/04 05:08:24;;;;;;;7.10;6.50;;;24.70;96.60;;;;;;6300663;28;20711;-66
2022/07/04 05:11:29;;;;;;;7.80;6.70;;;24.80;96.50;;;;;;6301335;28;20223;-64
2022/07/04 05:14:32;;;;;;;9.10;7.17;;;24.90;96.20;;;;;;6301255;28;20237;-63
2022/07/04 05:17:36;;;;;;;7.70;6.90;;;25.00;96.10;;;;;;6299666;28;20257;-64
2022/07/04 05:20:39;;;;;;;7.23;6.53;;;25.10;96.10;;;;;;6299829;28;20240;-63
2022/07/04 05:23:43;;;;;;;7.70;7.10;;;25.20;95.70;;;;;;6300546;28;20244;-65
2022/07/04 05:26:47;;;;;;;8.27;6.43;;;25.30;95.30;;;;;;6300503;28;20237;-63
2022/07/04 05:29:50;;;;;;;7.97;7.27;;;25.50;95.10;;;;;;6300688;28;20238;-63
2022/07/04 05:32:58;;;;;;;9.87;7.00;;;25.70;94.80;;;;;;6300137;28;20226;-68
2022/07/04 05:36:01;;;;;;;7.70;7.00;;;25.80;94.50;;;;;;6300710;28;20710;-67
2022/07/04 05:39:04;;;;;;;7.70;7.20;;;25.90;94.30;;;;;;6300640;28;20230;-67
2022/07/04 05:42:09;;;;;;;6.93;6.23;;;26.10;93.80;;;;;;6300550;28;20235;-67
2022/07/04 05:45:12;;;;;;;8.10;7.30;;;26.30;93.30;;;;;;6291274;28;20230;-68
2022/07/04 05:48:15;;;;;;;7.90;7.30;;;26.50;93.10;;;;;;6300113;28;20705;-68
2022/07/04 05:51:18;;;;;;;7.90;7.13;;;26.70;92.60;;;;;;6300405;28;20317;-68
2022/07/04 05:54:21;;;;;;;11.00;8.00;;;26.70;92.40;;;;;;6300029;28;20316;-67
2022/07/04 05:57:26;;;;;;;9.27;6.73;;;27.00;92.10;;;;;;6300101;28;20222;-69
2022/07/04 06:00:29;;;;;;;9.00;7.30;;;27.10;91.60;;;;;;6299817;28;20567;-67
2022/07/04 06:03:32;;;;;;;7.73;7.13;;;27.20;91.00;;;;;;6299931;28;20222;-67
2022/07/04 06:06:35;;;;;;;8.03;7.30;;;27.20;91.00;;;;;;6299955;28;20679;-67
2022/07/04 06:09:39;;;;;;;7.23;6.63;;;27.40;90.90;;;;;;6300054;28;20230;-67
2022/07/04 06:12:43;;;;;;;7.43;6.77;;;27.40;90.80;;;;;;6300146;28;20233;-67
2022/07/04 06:15:46;;;;;;;6.93;6.40;;;27.40;90.60;;;;;;6299652;28;20242;-67
2022/07/04 06:18:49;;;;;;;7.33;6.67;;;27.60;90.60;;;;;;6299476;28;20230;-66
2022/07/04 06:21:52;;;;;;;9.53;7.77;;;27.70;90.50;;;;;;6299679;28;20230;-67
2022/07/04 06:24:56;;;;;;;7.50;6.83;;;27.80;90.30;;;;;;6299435;28;20226;-67
2022/07/04 06:28:00;;;;;;;7.63;6.80;;;28.00;90.30;;;;;;6299575;28;20226;-68
2022/07/04 06:31:04;;;;;;;9.60;8.03;;;28.30;88.60;;;;;;6299740;28;20306;-66
2022/07/04 06:37:28;;;;;;;7.80;7.10;;;28.30;87.40;;;;;;6299925;28;20215;-67
2022/07/04 06:40:32;;;;;;;7.20;6.53;;;28.50;86.40;;;;;;6299603;28;20234;-66
2022/07/04 06:43:36;;;;;;;7.63;7.00;;;28.80;86.40;;;;;;6301085;28;20226;-66
2022/07/04 06:46:39;;;;;;;7.67;6.97;;;29.30;84.60;;;;;;6299773;28;20226;-66
2022/07/04 06:49:42;;;;;;;7.30;6.70;;;30.20;81.90;;;;;;6304381;28;20241;-67
2022/07/04 06:52:46;;;;;;;7.22;6.63;;;31.40;76.30;;;;;;6304228;28;20237;-66
2022/07/04 06:55:49;;;;;;;9.90;6.53;;;32.40;71.10;;;;;;6304123;28;20226;-66
2022/07/04 06:58:54;;;;;;;6.55;6.00;;;33.00;69.20;;;;;;6304144;28;20317;-66
2022/07/04 07:01:57;;;;;;;7.28;6.65;;;33.40;66.40;;;;;;6304037;28;20249;-66
2022/07/04 07:05:03;;;;;;;7.68;6.97;;;32.90;66.30;;;;;;6303921;28;20241;-66
2022/07/04 07:08:09;;;;;;;7.30;6.80;;;32.10;67.60;;;;;;6301259;28;20231;-66
2022/07/04 07:11:18;;;;;;;7.68;6.78;;;31.60;68.90;;;;;;6302505;28;20224;-66
2022/07/04 07:14:23;;;;;;;7.82;6.93;;;31.70;70.10;;;;;;6302343;28;20248;-67
2022/07/04 07:17:26;;;;;;;7.50;6.90;;;32.80;65.90;;;;;;6303644;28;20226;-67
2022/07/04 07:20:29;;;;;;;6.80;6.20;;;33.00;64.60;;;;;;6302995;28;20694;-66
2022/07/04 07:23:32;;;;;;;12.15;7.32;;;33.20;65.10;;;;;;6302770;28;20237;-67
2022/07/04 07:26:35;;;;;;;7.32;6.78;;;33.20;64.80;;;;;;6304252;28;20226;-66
2022/07/04 07:29:40;;;;;;;8.70;6.75;;;33.00;64.50;;;;;;6303740;28;20230;-66
2022/07/04 07:32:43;;;;;;;9.32;6.90;;;32.60;65.40;;;;;;6303851;28;20249;-66
2022/07/04 07:35:46;;;;;;;10.43;7.28;;;32.90;65.80;;;;;;6304392;28;20225;-66
2022/07/04 07:38:50;;;;;;;8.32;7.50;;;33.90;63.80;;;;;;6304222;28;20230;-66
2022/07/04 07:41:53;;;;;;;6.63;6.03;;;35.00;61.50;;;;;;6304146;28;20230;-66
2022/07/04 07:44:57;;;;;;;6.07;5.57;;;36.20;59.00;;;;;;6304048;28;20230;-66
2022/07/04 07:48:00;;;;;;;5.95;5.57;;;37.10;56.10;;;;;;6303423;28;20558;-66
2022/07/04 07:51:04;;;;;;;6.68;5.70;;;37.40;52.80;;;;;;6298217;28;20226;-66
2022/07/04 07:54:07;;;;;;;5.22;4.80;;;36.80;52.00;;;;;;6302638;28;20242;-67
2022/07/04 07:57:20;;;;;;;5.10;4.80;;;36.10;52.60;;;;;;6302935;28;20313;-66
2022/07/04 08:00:24;;;;;;;4.57;4.28;;;36.10;51.40;;;;;;6302946;28;20690;-66
2022/07/04 08:07:13;;;;;;;4.50;3.95;;;35.50;50.10;;;;;;6302515;28;20531;-67
2022/07/04 08:10:25;;;;;;;4.82;4.53;;;35.30;49.90;;;;;;6302746;28;20230;-66
2022/07/04 08:13:28;;;;;;;4.07;3.70;;;35.20;49.50;;;;;;6300038;28;20195;-65
2022/07/04 08:16:34;;;;;;;4.07;3.75;;;35.10;49.60;;;;;;6300764;28;20209;-65
2022/07/04 08:19:57;;;;;;;3.90;3.60;;;34.80;49.90;;;;;;6292738;28;20230;-66
2022/07/04 08:23:00;;;;;;;4.90;3.50;;;34.30;50.10;;;;;;6302244;28;20222;-65
2022/07/04 08:26:04;;;;;;;4.35;3.90;;;33.80;50.50;;;;;;6302373;28;20222;-65
2022/07/04 08:29:07;;;;;;;4.80;4.32;;;33.30;51.90;;;;;;6302164;28;20710;-65
2022/07/04 08:32:11;;;;;;;4.80;4.50;;;32.80;52.60;;;;;;6302187;28;20246;-65
2022/07/04 08:35:15;;;;;;;4.80;4.30;;;32.40;53.60;;;;;;6302260;28;20234;-65
2022/07/04 08:38:18;;;;;;;4.93;4.53;;;32.00;54.60;;;;;;6302208;28;20230;-66
2022/07/04 08:41:22;;;;;;;5.90;5.35;;;31.80;55.50;;;;;;6301857;28;20588;-67
2022/07/04 08:44:28;;;;;;;5.07;4.68;;;31.80;55.60;;;;;;6301397;28;20574;-67
2022/07/04 08:47:35;;;;;;;8.40;5.10;;;31.70;56.10;;;;;;6300839;28;20219;-68
2022/07/04 08:50:42;;;;;;;4.50;4.18;;;31.90;56.30;;;;;;6300447;28;20680;-67
2022/07/04 08:53:52;;;;;;;5.55;4.75;;;31.90;56.40;;;;;;6300586;28;20232;-66
2022/07/04 09:00:17;;;;;;;4.85;4.45;;;31.80;56.80;;;;;;6300947;28;20235;-66
2022/07/04 09:03:22;;;;;;;8.68;4.78;;;31.70;57.40;;;;;;6301326;28;20249;-67
2022/07/04 09:06:27;;;;;;;4.88;4.57;;;31.90;57.80;;;;;;6300000;28;20227;-66
2022/07/04 09:09:33;;;;;;;6.97;5.00;;;32.20;57.20;;;;;;6301385;28;20234;-66
2022/07/04 09:12:36;;;;;;;6.85;4.68;;;32.60;56.80;;;;;;6300818;28;20218;-66
2022/07/04 09:16:00;;;;;;;4.50;4.20;;;33.00;56.10;;;;;;6300952;28;20668;-66
2022/07/04 09:19:10;;;;;;;4.88;4.18;;;33.20;55.60;;;;;;6300420;28;20564;-66
2022/07/04 09:22:14;;;;;;;4.90;4.43;;;33.40;55.10;;;;;;6301822;28;20664;-66
2022/07/04 09:25:18;;;;;;;5.90;5.40;;;33.50;55.00;;;;;;6325618;28;20528;-67
2022/07/04 09:28:28;;;;;;;5.35;4.90;;;33.40;55.00;;;;;;6325687;28;20339;-67
2022/07/04 09:31:32;;;;;;;9.27;5.45;;;32.90;55.80;;;;;;6325544;28;20221;-67
2022/07/04 09:34:37;;;;;;;6.40;4.75;;;32.50;57.30;;;;;;6325682;28;20236;-68
2022/07/04 09:37:45;;;;;;;5.60;5.10;;;32.00;57.80;;;;;;6325913;28;20575;-67
2022/07/04 09:44:14;;;;;;;6.05;5.55;;;31.00;59.60;;;;;;6324819;28;20691;-67
2022/07/04 09:47:23;;;;;;;5.50;5.00;;;30.50;60.90;;;;;;6325206;28;20225;-68
2022/07/04 09:50:29;;;;;;;5.82;5.32;;;30.30;61.80;;;;;;6307615;28;20241;-67
2022/07/04 09:53:33;;;;;;;5.50;5.10;;;30.20;63.40;;;;;;6300167;28;20230;-67
2022/07/04 09:56:41;;;;;;;5.93;5.53;;;30.10;63.40;;;;;;6299717;28;20311;-67
2022/07/04 09:59:44;;;;;;;5.80;5.30;;;30.10;63.90;;;;;;6286079;28;20234;-66
2022/07/04 10:02:48;;;;;;;6.05;5.55;;;30.10;64.30;;;;;;6299226;28;20552;-67
2022/07/04 10:06:06;;;;;;;6.18;5.57;;;30.00;64.60;;;;;;6299481;28;20218;-66
2022/07/04 10:09:15;;;;;;;5.13;4.72;;;30.10;64.80;;;;;;6299278;28;20723;-66
2022/07/04 10:12:26;;;;;;;5.80;5.40;;;30.00;65.90;;;;;;6299728;28;20260;-66
2022/07/04 10:15:30;;;;;;;6.50;6.00;;;30.20;65.50;;;;;;6298467;28;20230;-68
2022/07/04 10:18:34;;;;;;;6.40;5.47;;;30.60;64.40;;;;;;6297125;28;20234;-68
2022/07/04 10:21:39;;;;;;;6.10;5.68;;;31.00;62.60;;;;;;6297901;28;20312;-68
2022/07/04 10:24:42;;;;;;;6.20;5.70;;;31.30;61.90;;;;;;6298023;28;20230;-67
2022/07/04 10:27:48;;;;;;;6.60;5.90;;;31.80;61.50;;;;;;6298392;28;20226;-68
2022/07/04 10:30:53;;;;;;;7.53;5.13;;;32.00;60.10;;;;;;6298318;28;20694;-67
2022/07/04 10:33:58;;;;;;;6.15;5.50;;;31.90;60.00;;;;;;6299312;28;20219;-68
2022/07/04 10:37:03;;;;;;;6.15;5.30;;;31.70;61.00;;;;;;6299299;28;20231;-68
2022/07/04 10:40:08;;;;;;;6.05;5.65;;;31.40;61.50;;;;;;6299427;28;20236;-66
2022/07/04 10:43:53;;;;;;;6.70;6.15;;;31.10;62.20;;;;;;6298591;28;20235;-67
2022/07/04 10:46:57;;;;;;;6.00;5.60;;;30.80;62.60;;;;;;6298176;28;20218;-67
2022/07/04 10:50:00;;;;;;;5.72;5.22;;;30.60;63.90;;;;;;6296513;28;20222;-68
2022/07/04 10:53:11;;;;;;;6.10;5.63;;;30.40;63.70;;;;;;6297941;28;20229;-67
2022/07/04 10:56:35;;;;;;;5.47;4.97;;;30.30;64.00;;;;;;6296982;28;20600;-67
2022/07/04 10:59:39;;;;;;;5.50;5.00;;;30.30;64.80;;;;;;6296615;28;20652;-66
2022/07/04 11:02:43;;;;;;;6.05;5.38;;;30.50;64.70;;;;;;6292918;28;20241;-66
2022/07/04 11:05:49;;;;;;;5.28;4.78;;;30.80;64.10;;;;;;6297163;28;20219;-66
2022/07/04 11:09:15;;;;;;;4.95;4.55;;;31.10;62.80;;;;;;6298199;28;20248;-67
2022/07/04 11:12:18;;;;;;;5.65;5.18;;;31.60;61.10;;;;;;6298625;28;20309;-67
2022/07/04 11:16:03;;;;;;;5.90;5.30;;;32.00;60.50;;;;;;6298494;28;20236;-67
2022/07/04 11:19:06;;;;;;;5.35;4.95;;;32.60;59.80;;;;;;6299537;28;20408;-66
2022/07/04 11:22:10;;;;;;;5.45;5.00;;;33.30;58.50;;;;;;6312558;28;20225;-66
2022/07/04 11:25:15;;;;;;;6.28;5.85;;;33.80;57.20;;;;;;6323783;28;20226;-65
2022/07/04 11:28:19;;;;;;;6.65;5.40;;;34.10;56.70;;;;;;6323840;28;20218;-66
2022/07/04 11:31:45;;;;;;;5.68;5.18;;;34.60;56.10;;;;;;6320687;28;20222;-67
2022/07/04 11:34:48;;;;;;;6.28;5.68;;;34.90;54.60;;;;;;6303165;28;20585;-66
2022/07/04 11:37:57;;;;;;;5.43;5.00;;;35.10;53.70;;;;;;6303342;28;20219;-66
2022/07/04 11:47:46;;;;;;;4.95;4.65;;;35.30;51.50;;;;;;6302088;28;20561;-66
2022/07/04 11:50:49;;;;;;;4.40;4.10;;;35.20;50.50;;;;;;6302646;28;20230;-66
2022/07/04 11:54:04;;;;;;;4.78;4.20;;;35.10;50.80;;;;;;6302960;28;20222;-66
2022/07/04 11:57:33;;;;;;;4.75;4.45;;;35.00;50.70;;;;;;6302540;28;20225;-67
2022/07/04 12:00:37;;;;;;;4.82;4.53;;;34.60;51.00;;;;;;6302406;28;20237;-67
2022/07/04 12:03:40;;;;;;;4.28;3.88;;;34.50;50.70;;;;;;6302560;28;20371;-67
2022/07/04 12:06:44;;;;;;;4.32;4.13;;;34.40;50.80;;;;;;6308634;28;20237;-66
2022/07/04 12:09:48;;;;;;;5.05;4.65;;;34.30;50.80;;;;;;6327695;28;20237;-65
2022/07/04 12:12:54;;;;;;;4.68;4.38;;;34.30;51.10;;;;;;6327365;28;20226;-67
2022/07/04 12:15:57;;;;;;;4.80;4.38;;;34.40;51.50;;;;;;6316745;28;20219;-66
2022/07/04 12:19:10;;;;;;;5.53;5.13;;;34.50;51.70;;;;;;6301812;28;20316;-65
2022/07/04 12:22:13;;;;;;;4.70;4.40;;;34.60;51.40;;;;;;6316263;28;20218;-66
2022/07/04 12:25:24;;;;;;;4.85;4.45;;;34.50;51.50;;;;;;6326845;28;20571;-66
2022/07/04 12:28:36;;;;;;;5.35;4.90;;;34.60;51.20;;;;;;6327715;28;20222;-67
2022/07/04 12:31:41;;;;;;;5.35;4.93;;;34.60;51.90;;;;;;6322397;28;20226;-66
2022/07/04 12:34:44;;;;;;;5.03;4.63;;;34.40;52.20;;;;;;6302383;28;20229;-66
2022/07/04 12:38:01;;;;;;;5.30;4.90;;;34.10;52.60;;;;;;6301613;28;20229;-66
2022/07/04 12:41:06;;;;;;;4.95;4.65;;;34.00;52.10;;;;;;6300656;28;20538;-66
2022/07/04 12:44:22;;;;;;;4.88;4.57;;;33.90;52.80;;;;;;6301553;28;20576;-68
2022/07/04 12:47:25;;;;;;;5.72;4.88;;;33.80;53.00;;;;;;6301313;28;20642;-68
2022/07/04 12:50:46;;;;;;;5.78;5.28;;;33.80;53.80;;;;;;6301641;28;20253;-68
2022/07/04 12:53:51;;;;;;;5.55;5.07;;;33.90;54.40;;;;;;6301599;28;20222;-68
2022/07/04 12:57:05;;;;;;;5.90;5.28;;;34.00;54.80;;;;;;6301557;28;20226;-68
2022/07/04 13:00:12;;;;;;;5.70;5.30;;;34.10;54.60;;;;;;6301178;28;20525;-66
2022/07/04 13:03:35;;;;;;;5.78;5.35;;;33.80;55.60;;;;;;6300293;28;20233;-67
2022/07/04 13:06:39;;;;;;;5.78;5.38;;;33.70;54.90;;;;;;6315302;28;20222;-67
2022/07/04 13:09:43;;;;;;;6.30;5.20;;;33.20;56.10;;;;;;6321520;28;20240;-68
2022/07/04 13:12:46;;;;;;;5.60;5.10;;;33.10;56.60;;;;;;6326075;28;20575;-68
2022/07/04 13:15:51;;;;;;;5.60;5.20;;;32.90;56.20;;;;;;6316707;28;20549;-69
2022/07/04 13:18:54;;;;;;;5.60;5.20;;;33.20;56.30;;;;;;6300981;28;20230;-68
2022/07/04 13:21:58;;;;;;;6.00;5.50;;;33.20;56.30;;;;;;6312481;28;20221;-68
2022/07/04 13:25:03;;;;;;;5.82;5.45;;;33.30;55.70;;;;;;6325658;28;20532;-66
2022/07/04 13:28:06;;;;;;;5.55;4.65;;;33.30;56.00;;;;;;6325686;28;20355;-68
2022/07/04 13:31:11;;;;;;;6.00;5.50;;;33.30;56.10;;;;;;6324887;28;20955;-67
2022/07/04 13:34:14;;;;;;;7.25;5.70;;;33.40;55.90;;;;;;6300595;28;20218;-66
2022/07/04 13:37:18;;;;;;;6.40;5.90;;;33.30;55.70;;;;;;6300917;28;20203;-66
2022/07/04 13:40:21;;;;;;;5.57;5.07;;;33.10;55.30;;;;;;6300512;28;20664;-67
2022/07/04 13:43:26;;;;;;;6.03;5.53;;;33.00;56.60;;;;;;6275720;28;20210;-67
2022/07/04 13:46:34;;;;;;;5.70;5.20;;;32.70;57.50;;;;;;6275439;28;20338;-67
2022/07/04 13:49:38;;;;;;;5.88;5.47;;;32.70;57.60;;;;;;6275716;28;20228;-67
2022/07/04 13:52:41;;;;;;;5.50;5.10;;;32.40;58.20;;;;;;6275914;28;20563;-67
2022/07/04 13:55:46;;;;;;;6.03;5.00;;;32.40;57.70;;;;;;6275336;28;20231;-67
2022/07/04 13:58:50;;;;;;;5.93;5.35;;;32.50;57.60;;;;;;6275032;28;20233;-67
2022/07/04 14:01:54;;;;;;;5.82;5.43;;;32.40;57.70;;;;;;6273461;28;20229;-67
2022/07/04 14:04:58;;;;;;;7.72;6.25;;;32.20;57.70;;;;;;6266013;28;20309;-68
2022/07/04 14:08:01;;;;;;;5.70;5.30;;;32.00;58.30;;;;;;6275175;28;20248;-68
2022/07/04 14:11:04;;;;;;;6.20;5.80;;;31.90;58.60;;;;;;6269717;28;20667;-68
2022/07/04 14:14:07;;;;;;;5.85;5.45;;;32.10;58.10;;;;;;6274676;28;20246;-68
2022/07/04 14:17:12;;;;;;;12.50;5.93;;;32.30;58.40;;;;;;6274540;28;20694;-68
2022/07/04 14:20:35;;;;;;;7.20;6.50;;;32.60;58.20;;;;;;6274493;28;20235;-68
2022/07/04 14:23:41;;;;;;;6.43;5.90;;;32.60;57.30;;;;;;6274464;28;20227;-66
2022/07/04 14:26:44;;;;;;;5.82;5.43;;;32.60;57.50;;;;;;6274804;28;20235;-65
2022/07/04 14:29:47;;;;;;;16.80;8.35;;;32.50;58.00;;;;;;6274507;28;20231;-65
2022/07/04 14:32:52;;;;;;;6.60;6.10;;;32.40;58.20;;;;;;6274092;28;20235;-65
2022/07/04 14:35:55;;;;;;;9.52;6.93;;;32.30;57.90;;;;;;6274403;28;20219;-66
2022/07/04 14:38:58;;;;;;;6.30;5.70;;;32.30;57.30;;;;;;6273891;28;20573;-67
2022/07/04 14:42:01;;;;;;;6.72;6.13;;;32.10;58.80;;;;;;6274308;28;20231;-67
2022/07/04 14:45:06;;;;;;;6.70;6.10;;;32.00;59.10;;;;;;6275196;28;20237;-66
2022/07/04 14:48:11;;;;;;;6.05;5.50;;;32.10;58.90;;;;;;6274298;28;20230;-65
2022/07/04 14:51:14;;;;;;;6.95;4.90;;;32.10;59.00;;;;;;6273837;28;20246;-66
2022/07/04 14:54:17;;;;;;;5.97;5.47;;;32.10;59.00;;;;;;6276744;28;20223;-66
2022/07/04 14:57:20;;;;;;;6.00;5.60;;;32.20;58.40;;;;;;6277763;28;20694;-66
2022/07/04 15:00:24;;;;;;;6.30;5.80;;;32.00;58.60;;;;;;6275488;28;20232;-65
2022/07/04 15:03:28;;;;;;;7.00;6.43;;;32.00;59.00;;;;;;6274240;28;20235;-65
2022/07/04 15:06:31;;;;;;;6.63;6.22;;;31.70;58.50;;;;;;6278257;28;20241;-65
2022/07/04 15:09:34;;;;;;;6.35;5.43;;;31.50;59.20;;;;;;6277468;28;20235;-65
2022/07/04 15:12:38;;;;;;;5.70;5.20;;;31.60;59.10;;;;;;6277016;28;20237;-65
2022/07/04 15:15:41;;;;;;;5.85;5.45;;;31.80;59.10;;;;;;6278331;28;20219;-65
2022/07/04 15:18:48;;;;;;;5.78;5.28;;;31.90;58.60;;;;;;6274037;28;20747;-65
2022/07/04 15:25:11;;;;;;;6.03;5.32;;;32.00;57.30;;;;;;6278194;28;20242;-67
2022/07/04 15:28:15;;;;;;;5.32;4.93;;;31.90;57.60;;;;;;6275951;28;20223;-66
2022/07/04 15:31:18;;;;;;;5.78;5.38;;;31.80;57.50;;;;;;6277702;28;20223;-67
2022/07/04 15:34:23;;;;;;;5.90;5.40;;;31.70;58.00;;;;;;6278341;28;20672;-66
2022/07/04 15:37:26;;;;;;;5.57;5.07;;;31.70;57.70;;;;;;6278158;28;20313;-67
2022/07/04 15:40:35;;;;;;;5.78;5.20;;;31.80;57.10;;;;;;6278650;28;20230;-67
2022/07/04 15:43:38;;;;;;;5.35;5.03;;;31.80;56.50;;;;;;6278075;28;20237;-66
2022/07/04 15:49:59;;;;;;;4.63;4.22;;;31.70;57.20;;;;;;6277879;28;20314;-66
2022/07/04 15:53:03;;;;;;;5.25;4.75;;;31.70;57.10;;;;;;6278586;28;20238;-67
2022/07/04 15:56:06;;;;;;;5.47;5.03;;;31.60;57.90;;;;;;6276753;28;20276;-66
2022/07/04 15:59:09;;;;;;;5.38;4.80;;;31.40;58.70;;;;;;6275823;28;20560;-66
2022/07/04 16:02:12;;;;;;;5.15;4.78;;;31.20;59.20;;;;;;6276334;28;20329;-68
2022/07/04 16:05:17;;;;;;;5.15;4.80;;;31.10;59.40;;;;;;6276508;28;20227;-67
2022/07/04 16:08:20;;;;;;;5.40;4.90;;;30.90;59.90;;;;;;6276451;28;20235;-67
2022/07/04 16:11:23;;;;;;;5.05;4.65;;;30.80;61.00;;;;;;6276601;28;20673;-65
2022/07/04 16:14:26;;;;;;;5.47;5.00;;;30.80;60.40;;;;;;6277202;28;20685;-66
2022/07/04 16:17:29;;;;;;;10.02;4.30;;;30.60;60.00;;;;;;6276887;28;20231;-65
2022/07/04 16:20:34;;;;;;;4.88;4.57;;;30.60;59.90;;;;;;6277024;28;20626;-65
2022/07/04 16:23:37;;;;;;;4.72;4.35;;;30.50;59.90;;;;;;6252805;28;20228;-66
2022/07/04 16:26:41;;;;;;;5.85;5.35;;;30.30;60.50;;;;;;6273820;28;20219;-66
2022/07/04 16:29:44;;;;;;;6.35;4.60;;;30.20;60.70;;;;;;6276895;28;20242;-66
2022/07/04 16:32:47;;;;;;;4.32;4.03;;;30.10;61.00;;;;;;6276626;28;20692;-66
2022/07/04 16:35:52;;;;;;;5.20;4.80;;;30.00;61.40;;;;;;6275809;28;20226;-66